createdAt,value
2018-03-06T00:00:48.826Z,7.02
2018-03-06T00:01:49.665Z,6.99
2018-03-06T00:02:48.848Z,6.98
2018-03-06T00:03:48.833Z,6.95
2018-03-06T00:04:48.859Z,6.91
2018-03-06T00:05:48.835Z,6.9
2018-03-06T00:06:48.843Z,6.88
2018-03-06T00:07:48.826Z,6.9
2018-03-06T00:08:49.137Z,6.9
2018-03-06T00:09:50.812Z,6.85
2018-03-06T00:10:48.823Z,6.83
2018-03-06T00:11:48.833Z,6.84
2018-03-06T00:12:48.831Z,6.88
2018-03-06T00:13:49.873Z,6.9
2018-03-06T00:14:48.835Z,6.85
2018-03-06T00:15:48.832Z,6.85
2018-03-06T00:16:49.183Z,6.85
2018-03-06T00:17:51.010Z,6.84
2018-03-06T00:18:48.859Z,6.85
2018-03-06T00:19:48.859Z,6.85
2018-03-06T00:20:48.890Z,6.83
2018-03-06T00:21:51.749Z,6.84
2018-03-06T00:22:51.016Z,6.81
2018-03-06T00:23:49.669Z,6.8
2018-03-06T00:24:50.144Z,6.81
2018-03-06T00:25:48.880Z,6.78
2018-03-06T00:26:48.942Z,6.78
2018-03-06T00:27:50.851Z,6.81
2018-03-06T00:28:48.877Z,6.74
2018-03-06T00:29:48.884Z,6.78
2018-03-06T00:30:48.901Z,6.78
2018-03-06T00:31:50.822Z,6.74
2018-03-06T00:32:48.928Z,6.75
2018-03-06T00:33:48.934Z,6.75
2018-03-06T00:34:48.917Z,6.71
2018-03-06T00:35:50.803Z,6.71
2018-03-06T00:36:48.952Z,6.73
2018-03-06T00:37:48.922Z,6.73
2018-03-06T00:38:48.923Z,6.71
2018-03-06T00:39:50.509Z,6.71
2018-03-06T00:40:48.923Z,6.7
2018-03-06T00:41:48.944Z,6.71
2018-03-06T00:42:50.971Z,6.68
2018-03-06T00:43:48.945Z,6.65
2018-03-06T00:44:48.964Z,6.64
2018-03-06T00:45:50.953Z,6.57
2018-03-06T00:46:48.954Z,6.53
2018-03-06T00:47:48.952Z,6.54
2018-03-06T00:48:49.259Z,6.47
2018-03-06T00:49:50.755Z,6.46
2018-03-06T00:50:48.974Z,6.39
2018-03-06T00:51:48.956Z,6.4
2018-03-06T00:52:50.861Z,6.39
2018-03-06T00:53:48.979Z,6.41
2018-03-06T00:54:48.973Z,6.46
2018-03-06T00:55:48.961Z,6.41
2018-03-06T00:56:48.977Z,6.41
2018-03-06T00:57:48.964Z,6.41
2018-03-06T00:58:49.672Z,6.4
2018-03-06T00:59:51.249Z,6.37
2018-03-06T01:00:48.988Z,6.41
2018-03-06T01:01:49.068Z,6.41
2018-03-06T01:02:50.461Z,6.39
2018-03-06T01:03:49.004Z,6.35
2018-03-06T01:04:49.014Z,6.33
2018-03-06T01:05:48.997Z,6.33
2018-03-06T01:06:50.900Z,6.35
2018-03-06T01:07:49.019Z,6.35
2018-03-06T01:08:49.029Z,6.33
2018-03-06T01:09:49.040Z,6.36
2018-03-06T01:10:50.405Z,6.35
2018-03-06T01:11:49.034Z,6.32
2018-03-06T01:12:49.030Z,6.26
2018-03-06T01:13:50.958Z,6.29
2018-03-06T01:14:49.057Z,6.28
2018-03-06T01:15:49.017Z,6.23
2018-03-06T01:16:49.024Z,6.23
2018-03-06T01:17:50.656Z,6.22
2018-03-06T01:18:49.027Z,6.19
2018-03-06T01:19:49.074Z,6.19
2018-03-06T01:20:49.051Z,6.13
2018-03-06T01:21:50.354Z,6.11
2018-03-06T01:22:49.030Z,6.08
2018-03-06T01:23:49.034Z,6.09
2018-03-06T01:24:49.323Z,6.05
2018-03-06T01:25:49.050Z,6.05
2018-03-06T01:26:49.051Z,6.05
2018-03-06T01:27:49.075Z,6.08
2018-03-06T01:28:50.762Z,6.06
2018-03-06T01:29:49.073Z,6.09
2018-03-06T01:30:50.027Z,6.09
2018-03-06T01:31:50.116Z,6.12
2018-03-06T01:32:49.067Z,6.09
2018-03-06T01:33:49.077Z,6.06
2018-03-06T01:34:50.913Z,6.11
2018-03-06T01:35:49.086Z,6.08
2018-03-06T01:36:49.131Z,6.08
2018-03-06T01:37:49.532Z,6.06
2018-03-06T01:38:49.089Z,6.05
2018-03-06T01:39:49.136Z,6.05
2018-03-06T01:40:49.110Z,6.08
2018-03-06T01:41:50.723Z,6.05
2018-03-06T01:44:55.853Z,5.98
2018-03-06T01:45:51.332Z,5.94
2018-03-06T01:46:50.977Z,5.92
2018-03-06T01:47:51.209Z,5.91
2018-03-06T01:48:50.760Z,5.91
2018-03-06T01:49:50.682Z,5.95
2018-03-06T01:50:54.934Z,5.94
2018-03-06T01:52:15.157Z,5.94
2018-03-06T01:53:32.861Z,5.85
2018-03-06T01:59:10.592Z,5.75
2018-03-06T02:00:05.023Z,5.73
2018-03-06T02:01:06.371Z,5.69
2018-03-06T02:02:04.337Z,5.71
2018-03-06T02:03:04.549Z,5.69
2018-03-06T02:04:05.576Z,5.64
2018-03-06T02:05:03.261Z,5.69
2018-03-06T02:06:10.863Z,5.62
2018-03-06T02:08:05.162Z,5.64
2018-03-06T02:09:02.414Z,5.66
2018-03-06T02:10:05.095Z,5.67
2018-03-06T02:11:09.650Z,5.67
2018-03-06T02:12:09.229Z,5.62
2018-03-06T02:13:05.761Z,5.62
2018-03-06T02:14:03.997Z,5.6
2018-03-06T02:15:06.763Z,5.6
2018-03-06T02:17:05.011Z,5.56
2018-03-06T02:18:02.720Z,5.56
2018-03-06T02:19:12.829Z,5.62
2018-03-06T02:20:04.761Z,5.63
2018-03-06T02:21:10.693Z,5.63
2018-03-06T02:23:03.141Z,5.66
2018-03-06T02:24:03.122Z,5.64
2018-03-06T02:35:26.662Z,5.47
2018-03-06T02:36:25.610Z,5.45
2018-03-06T02:37:34.432Z,5.45
2018-03-06T02:38:24.213Z,5.45
2018-03-06T02:39:23.927Z,5.47
2018-03-06T02:40:24.253Z,5.47
2018-03-06T02:41:22.553Z,5.46
2018-03-06T02:42:22.578Z,5.49
2018-03-06T02:43:23.908Z,5.45
2018-03-06T02:44:22.864Z,5.47
2018-03-06T02:45:22.560Z,5.47
2018-03-06T02:46:22.574Z,5.47
2018-03-06T02:47:24.026Z,5.47
2018-03-06T02:48:22.569Z,5.46
2018-03-06T02:49:22.595Z,5.47
2018-03-06T02:50:22.611Z,5.49
2018-03-06T02:51:22.570Z,5.47
2018-03-06T02:52:22.610Z,5.49
2018-03-06T02:53:22.622Z,5.46
2018-03-06T02:54:24.397Z,5.45
2018-03-06T02:55:22.587Z,5.42
2018-03-06T02:56:22.599Z,5.4
2018-03-06T02:57:22.608Z,5.43
2018-03-06T02:58:22.601Z,5.42
2018-03-06T02:59:22.625Z,5.42
2018-03-06T03:00:22.598Z,5.39
2018-03-06T03:01:24.681Z,5.43
2018-03-06T03:02:22.601Z,5.42
2018-03-06T03:03:22.649Z,5.42
2018-03-06T03:04:22.609Z,5.4
2018-03-06T03:05:24.535Z,5.33
2018-03-06T03:06:22.630Z,5.35
2018-03-06T03:07:22.668Z,5.29
2018-03-06T03:08:22.649Z,5.33
2018-03-06T03:09:24.319Z,5.3
2018-03-06T03:10:22.649Z,5.32
2018-03-06T03:11:22.660Z,5.33
2018-03-06T03:12:24.520Z,5.35
2018-03-06T03:13:22.762Z,5.38
2018-03-06T03:14:22.671Z,5.38
2018-03-06T03:15:22.687Z,5.36
2018-03-06T03:16:24.524Z,5.38
2018-03-06T03:17:22.715Z,5.35
2018-03-06T03:18:22.684Z,5.35
2018-03-06T03:19:22.692Z,5.36
2018-03-06T03:20:23.987Z,5.36
2018-03-06T03:21:22.964Z,5.35
2018-03-06T03:22:22.687Z,5.35
2018-03-06T03:23:24.744Z,5.35
2018-03-06T03:24:22.709Z,5.28
2018-03-06T03:25:22.675Z,5.28
2018-03-06T03:26:22.713Z,5.28
2018-03-06T03:27:22.720Z,5.29
2018-03-06T03:28:22.717Z,5.28
2018-03-06T03:29:22.706Z,5.25
2018-03-06T03:30:24.122Z,5.26
2018-03-06T03:31:22.723Z,5.23
2018-03-06T03:32:22.972Z,5.22
2018-03-06T03:33:24.421Z,5.19
2018-03-06T03:34:22.727Z,5.19
2018-03-06T03:35:22.733Z,5.14
2018-03-06T03:36:23.851Z,5.1
2018-03-06T03:37:22.771Z,5.02
2018-03-06T03:38:22.760Z,4.98
2018-03-06T03:39:24.796Z,4.97
2018-03-06T03:40:22.754Z,4.93
2018-03-06T03:41:22.742Z,4.91
2018-03-06T03:42:24.686Z,4.88
2018-03-06T03:43:22.771Z,4.86
2018-03-06T03:44:22.755Z,4.86
2018-03-06T03:45:22.748Z,4.81
2018-03-06T03:46:22.761Z,4.81
2018-03-06T03:47:22.778Z,4.81
2018-03-06T03:48:22.792Z,4.79
2018-03-06T03:49:23.934Z,4.79
2018-03-06T03:50:23.039Z,4.74
2018-03-06T03:51:22.780Z,4.72
2018-03-06T03:52:24.257Z,4.69
2018-03-06T03:53:22.815Z,4.67
2018-03-06T03:54:22.816Z,4.67
2018-03-06T03:55:25.025Z,4.69
2018-03-06T03:56:22.825Z,4.67
2018-03-06T03:57:22.812Z,4.65
2018-03-06T03:58:22.806Z,4.63
2018-03-06T03:59:24.269Z,4.63
2018-03-06T04:00:22.845Z,4.62
2018-03-06T04:01:22.824Z,4.59
2018-03-06T04:02:24.664Z,4.56
2018-03-06T04:03:22.820Z,4.53
2018-03-06T04:04:22.857Z,4.55
2018-03-06T04:05:22.840Z,4.55
2018-03-06T04:06:22.856Z,4.53
2018-03-06T04:07:22.841Z,4.53
2018-03-06T04:08:24.335Z,4.51
2018-03-06T04:09:22.868Z,4.51
2018-03-06T04:10:22.871Z,4.48
2018-03-06T04:11:24.640Z,4.46
2018-03-06T04:12:22.889Z,4.48
2018-03-06T04:13:22.847Z,4.49
2018-03-06T04:14:24.541Z,4.46
2018-03-06T04:15:22.877Z,4.48
2018-03-06T04:16:22.905Z,4.4
2018-03-06T04:17:22.861Z,4.4
2018-03-06T04:18:24.622Z,4.39
2018-03-06T04:19:22.857Z,4.36
2018-03-06T04:20:22.862Z,4.33
2018-03-06T04:21:24.575Z,4.33
2018-03-06T04:22:22.891Z,4.3
2018-03-06T04:23:22.893Z,4.3
2018-03-06T04:24:24.517Z,4.3
2018-03-06T04:25:22.889Z,4.28
2018-03-06T04:26:22.917Z,4.29
2018-03-06T04:27:22.926Z,4.25
2018-03-06T04:28:24.752Z,4.22
2018-03-06T04:29:22.930Z,4.3
2018-03-06T04:30:22.934Z,4.28
2018-03-06T04:31:24.797Z,4.25
2018-03-06T04:32:22.927Z,4.24
2018-03-06T04:33:22.957Z,4.21
2018-03-06T04:34:24.260Z,4.19
2018-03-06T04:35:22.938Z,4.18
2018-03-06T04:36:22.919Z,4.18
2018-03-06T04:37:22.948Z,4.19
2018-03-06T04:38:24.798Z,4.17
2018-03-06T04:39:22.978Z,4.19
2018-03-06T04:40:22.973Z,4.21
2018-03-06T04:41:24.828Z,4.19
2018-03-06T04:42:22.999Z,4.19
2018-03-06T04:43:22.999Z,4.19
2018-03-06T04:44:22.983Z,4.21
2018-03-06T04:45:24.464Z,4.24
2018-03-06T04:46:22.996Z,4.28
2018-03-06T04:47:22.985Z,4.25
2018-03-06T04:48:24.940Z,4.19
2018-03-06T04:49:22.989Z,4.19
2018-03-06T04:50:23.010Z,4.17
2018-03-06T04:51:22.998Z,4.18
2018-03-06T04:52:24.656Z,4.14
2018-03-06T04:53:22.999Z,4.14
2018-03-06T04:54:23.000Z,4.15
2018-03-06T04:55:24.210Z,4.15
2018-03-06T04:56:23.007Z,4.21
2018-03-06T04:57:23.036Z,4.19
2018-03-06T04:58:23.028Z,4.18
2018-03-06T04:59:24.795Z,4.17
2018-03-06T05:00:23.037Z,4.18
2018-03-06T05:01:23.064Z,4.14
2018-03-06T05:02:23.040Z,4.14
2018-03-06T05:03:24.398Z,4.15
2018-03-06T05:04:23.044Z,4.18
2018-03-06T05:05:23.032Z,4.12
2018-03-06T05:06:23.049Z,4.14
2018-03-06T05:07:24.423Z,4.14
2018-03-06T05:08:23.048Z,4.17
2018-03-06T05:09:23.053Z,4.18
2018-03-06T05:10:24.450Z,4.1
2018-03-06T05:11:23.096Z,4.15
2018-03-06T05:12:23.049Z,4.17
2018-03-06T05:13:25.073Z,4.14
2018-03-06T05:14:23.055Z,4.11
2018-03-06T05:15:23.053Z,4.12
2018-03-06T05:16:25.071Z,4.1
2018-03-06T05:17:23.079Z,4.12
2018-03-06T05:18:23.080Z,4.12
2018-03-06T05:19:23.095Z,4.15
2018-03-06T05:20:24.835Z,4.14
2018-03-06T05:21:23.082Z,4.15
2018-03-06T05:22:23.105Z,4.15
2018-03-06T05:23:23.079Z,4.17
2018-03-06T05:24:25.403Z,4.19
2018-03-06T05:25:23.116Z,4.18
2018-03-06T05:26:23.113Z,4.18
2018-03-06T05:27:23.116Z,4.17
2018-03-06T05:28:24.833Z,4.18
2018-03-06T05:29:23.160Z,4.18
2018-03-06T05:30:23.094Z,4.17
2018-03-06T05:31:23.120Z,4.15
2018-03-06T05:32:24.610Z,4.1
2018-03-06T05:33:23.139Z,4.08
2018-03-06T05:34:23.135Z,4.08
2018-03-06T05:35:24.869Z,4.08
2018-03-06T05:36:23.109Z,4.07
2018-03-06T05:37:23.130Z,4.07
2018-03-06T05:38:23.113Z,4.05
2018-03-06T05:39:25.014Z,4.08
2018-03-06T05:40:23.137Z,4.08
2018-03-06T05:41:23.156Z,4.1
2018-03-06T05:42:23.166Z,4.01
2018-03-06T05:43:25.030Z,4.04
2018-03-06T05:44:23.246Z,4.02
2018-03-06T05:45:23.177Z,4
2018-03-06T05:46:23.133Z,4.01
2018-03-06T05:47:24.834Z,4.01
2018-03-06T05:48:23.164Z,4.02
2018-03-06T05:49:23.163Z,4.01
2018-03-06T05:50:24.104Z,3.98
2018-03-06T05:51:23.180Z,3.96
2018-03-06T05:52:23.187Z,3.91
2018-03-06T05:53:23.172Z,3.89
2018-03-06T05:54:25.024Z,3.89
2018-03-06T05:55:23.179Z,3.87
2018-03-06T05:56:23.209Z,3.91
2018-03-06T05:57:23.190Z,3.93
2018-03-06T05:58:25.026Z,3.91
2018-03-06T05:59:23.206Z,3.94
2018-03-06T06:00:23.201Z,3.94
2018-03-06T06:01:23.213Z,3.97
2018-03-06T06:02:25.032Z,3.93
2018-03-06T06:03:23.208Z,3.93
2018-03-06T06:04:23.318Z,3.93
2018-03-06T06:05:24.976Z,3.94
2018-03-06T06:06:23.215Z,3.93
2018-03-06T06:07:23.244Z,3.91
2018-03-06T06:08:24.692Z,3.9
2018-03-06T06:09:23.261Z,3.93
2018-03-06T06:10:23.317Z,3.91
2018-03-06T06:11:25.092Z,3.93
2018-03-06T06:12:23.280Z,3.9
2018-03-06T06:13:23.219Z,3.9
2018-03-06T06:14:23.217Z,3.91
2018-03-06T06:15:23.240Z,3.9
2018-03-06T06:16:23.221Z,3.87
2018-03-06T06:17:23.245Z,3.86
2018-03-06T06:18:23.236Z,3.86
2018-03-06T06:19:23.247Z,3.86
2018-03-06T06:20:23.248Z,3.83
2018-03-06T06:21:23.405Z,3.83
2018-03-06T06:22:23.623Z,3.84
2018-03-06T06:23:23.248Z,3.83
2018-03-06T06:24:23.314Z,3.83
2018-03-06T06:25:23.279Z,3.84
2018-03-06T06:26:23.285Z,3.84
2018-03-06T06:27:23.259Z,3.86
2018-03-06T06:28:23.258Z,3.83
2018-03-06T06:29:23.296Z,3.87
2018-03-06T06:30:23.248Z,3.87
2018-03-06T06:31:23.268Z,3.9
2018-03-06T06:32:23.262Z,3.91
2018-03-06T06:33:23.255Z,3.87
2018-03-06T06:34:23.264Z,3.87
2018-03-06T06:35:23.462Z,3.84
2018-03-06T06:36:23.252Z,3.8
2018-03-06T06:37:23.289Z,3.82
2018-03-06T06:38:23.287Z,3.8
2018-03-06T06:39:23.274Z,3.79
2018-03-06T06:40:23.268Z,3.8
2018-03-06T06:41:23.277Z,3.77
2018-03-06T06:42:23.348Z,3.76
2018-03-06T06:43:23.299Z,3.76
2018-03-06T06:44:23.289Z,3.77
2018-03-06T06:45:23.290Z,3.79
2018-03-06T06:46:23.298Z,3.76
2018-03-06T06:47:23.312Z,3.76
2018-03-06T06:48:23.313Z,3.79
2018-03-06T06:49:23.314Z,3.79
2018-03-06T06:50:23.316Z,3.77
2018-03-06T06:51:23.324Z,3.74
2018-03-06T06:52:23.448Z,3.69
2018-03-06T06:53:23.330Z,3.65
2018-03-06T06:54:23.347Z,3.56
2018-03-06T06:55:23.338Z,3.52
2018-03-06T06:56:23.335Z,3.45
2018-03-06T06:57:23.338Z,3.41
2018-03-06T06:58:23.354Z,3.42
2018-03-06T06:59:23.346Z,3.42
2018-03-06T07:00:23.395Z,3.41
2018-03-06T07:01:23.358Z,3.29
2018-03-06T07:02:23.350Z,3.17
2018-03-06T07:03:23.364Z,3.07
2018-03-06T07:04:23.481Z,3.03
2018-03-06T07:05:23.368Z,3.14
2018-03-06T07:06:23.394Z,3.17
2018-03-06T07:07:23.372Z,3.24
2018-03-06T07:08:23.401Z,3.24
2018-03-06T07:09:23.394Z,3.28
2018-03-06T07:10:23.654Z,3.27
2018-03-06T07:11:23.410Z,3.2
2018-03-06T07:12:23.400Z,3.18
2018-03-06T07:13:23.390Z,3.11
2018-03-06T07:14:23.444Z,2.99
2018-03-06T07:15:23.392Z,2.96
2018-03-06T07:16:23.397Z,3.03
2018-03-06T07:17:23.417Z,3.08
2018-03-06T07:18:23.421Z,3.15
2018-03-06T07:19:23.402Z,3.11
2018-03-06T07:20:23.420Z,3.01
2018-03-06T07:21:23.419Z,3.01
2018-03-06T07:22:23.429Z,2.99
2018-03-06T07:23:23.431Z,2.99
2018-03-06T07:24:23.422Z,2.97
2018-03-06T07:25:23.433Z,2.94
2018-03-06T07:26:23.428Z,2.99
2018-03-06T07:27:23.436Z,3.03
2018-03-06T07:28:23.434Z,3.06
2018-03-06T07:29:23.440Z,3.1
2018-03-06T07:30:23.443Z,3.12
2018-03-06T07:31:23.444Z,3.18
2018-03-06T07:32:23.570Z,3.21
2018-03-06T07:33:23.445Z,3.12
2018-03-06T07:34:23.459Z,3.1
2018-03-06T07:35:23.459Z,3.12
2018-03-06T07:36:23.454Z,3.15
2018-03-06T07:37:23.472Z,3.18
2018-03-06T07:38:23.461Z,3.24
2018-03-06T07:39:23.462Z,3.25
2018-03-06T07:40:23.459Z,3.24
2018-03-06T07:41:23.471Z,3.27
2018-03-06T07:42:23.471Z,3.28
2018-03-06T07:43:23.478Z,3.27
2018-03-06T07:44:23.488Z,3.32
2018-03-06T07:45:23.592Z,3.38
2018-03-06T07:46:23.481Z,3.41
2018-03-06T07:47:23.478Z,3.46
2018-03-06T07:48:23.500Z,3.49
2018-03-06T07:49:23.485Z,3.52
2018-03-06T07:50:23.512Z,3.55
2018-03-06T07:51:23.553Z,3.58
2018-03-06T07:52:23.526Z,3.61
2018-03-06T07:53:23.506Z,3.62
2018-03-06T07:54:23.517Z,3.62
2018-03-06T07:55:23.516Z,3.65
2018-03-06T07:56:23.510Z,3.69
2018-03-06T07:57:23.516Z,3.73
2018-03-06T07:58:23.514Z,3.76
2018-03-06T07:59:23.544Z,3.73
2018-03-06T08:00:23.536Z,3.8
2018-03-06T08:01:23.523Z,3.79
2018-03-06T08:02:23.537Z,3.82
2018-03-06T08:03:23.688Z,3.86
2018-03-06T08:04:23.543Z,3.87
2018-03-06T08:05:23.558Z,3.91
2018-03-06T08:06:23.556Z,3.94
2018-03-06T08:07:23.556Z,3.97
2018-03-06T08:08:23.552Z,4.01
2018-03-06T08:09:23.578Z,4.02
2018-03-06T08:10:23.551Z,4.05
2018-03-06T08:11:23.578Z,4.05
2018-03-06T08:12:23.560Z,4.08
2018-03-06T08:13:23.566Z,4.08
2018-03-06T08:14:23.571Z,4.1
2018-03-06T08:15:23.582Z,4.04
2018-03-06T08:16:23.577Z,4.08
2018-03-06T08:17:23.587Z,4.08
2018-03-06T08:18:23.595Z,4.11
2018-03-06T08:19:23.579Z,4.12
2018-03-06T08:20:23.586Z,4.15
2018-03-06T08:21:23.597Z,4.18
2018-03-06T08:22:23.609Z,4.21
2018-03-06T08:23:23.881Z,4.26
2018-03-06T08:24:23.604Z,4.29
2018-03-06T08:25:23.614Z,4.33
2018-03-06T08:26:23.613Z,4.38
2018-03-06T08:27:23.623Z,4.39
2018-03-06T08:28:23.660Z,4.38
2018-03-06T08:29:23.636Z,4.32
2018-03-06T08:30:23.632Z,4.38
2018-03-06T08:31:23.632Z,4.39
2018-03-06T08:32:23.636Z,4.39
2018-03-06T08:33:23.657Z,4.4
2018-03-06T08:35:23.641Z,4.39
2018-03-06T08:36:23.650Z,4.39
2018-03-06T08:37:23.640Z,4.42
2018-03-06T08:38:23.655Z,4.42
2018-03-06T08:39:23.668Z,4.45
2018-03-06T08:40:23.651Z,4.46
2018-03-06T08:41:23.681Z,4.51
2018-03-06T08:42:23.666Z,4.55
2018-03-06T08:43:23.665Z,4.56
2018-03-06T08:44:23.682Z,4.59
2018-03-06T08:45:23.673Z,4.65
2018-03-06T08:46:23.704Z,4.67
2018-03-06T08:47:23.673Z,4.72
2018-03-06T08:48:23.686Z,4.77
2018-03-06T08:49:23.690Z,4.77
2018-03-06T08:50:23.701Z,4.79
2018-03-06T08:51:23.730Z,4.79
2018-03-06T08:52:23.898Z,4.8
2018-03-06T08:53:23.707Z,4.86
2018-03-06T08:54:23.716Z,4.9
2018-03-06T08:55:23.716Z,4.95
2018-03-06T08:56:23.738Z,5.01
2018-03-06T08:57:23.712Z,5.05
2018-03-06T08:58:23.728Z,5.1
2018-03-06T08:59:23.740Z,5.12
2018-03-06T09:00:23.733Z,5.15
2018-03-06T09:01:23.791Z,5.19
2018-03-06T09:02:23.753Z,5.25
2018-03-06T09:03:23.743Z,5.29
2018-03-06T09:04:23.750Z,5.3
2018-03-06T09:05:23.755Z,5.35
2018-03-06T09:06:23.771Z,5.38
2018-03-06T09:07:23.755Z,5.36
2018-03-06T09:08:23.763Z,5.36
2018-03-06T09:09:23.764Z,5.39
2018-03-06T09:10:23.791Z,5.42
2018-03-06T09:11:23.774Z,5.46
2018-03-06T09:12:23.767Z,5.47
2018-03-06T09:13:23.831Z,5.5
2018-03-06T09:14:23.768Z,5.47
2018-03-06T09:15:23.775Z,5.51
2018-03-06T09:16:23.781Z,5.5
2018-03-06T09:17:23.959Z,5.56
2018-03-06T09:18:23.780Z,5.6
2018-03-06T09:19:23.804Z,5.6
2018-03-06T09:20:23.783Z,5.64
2018-03-06T09:21:23.794Z,5.66
2018-03-06T09:22:23.842Z,5.71
2018-03-06T09:23:23.792Z,5.64
2018-03-06T09:24:23.918Z,5.69
2018-03-06T09:25:23.806Z,5.7
2018-03-06T09:26:23.796Z,5.75
2018-03-06T09:27:23.822Z,5.73
2018-03-06T09:28:23.811Z,5.71
2018-03-06T09:29:23.805Z,5.73
2018-03-06T09:30:23.805Z,5.74
2018-03-06T09:31:23.820Z,5.75
2018-03-06T09:32:23.848Z,5.78
2018-03-06T09:33:23.826Z,5.81
2018-03-06T09:34:23.812Z,5.84
2018-03-06T09:35:23.836Z,5.88
2018-03-06T09:36:23.824Z,5.92
2018-03-06T09:37:24.098Z,5.97
2018-03-06T09:38:23.826Z,6
2018-03-06T09:39:23.834Z,6.01
2018-03-06T09:40:23.837Z,6.06
2018-03-06T09:41:23.832Z,6.05
2018-03-06T09:42:23.864Z,6.11
2018-03-06T09:43:23.831Z,6.08
2018-03-06T09:44:23.834Z,6.15
2018-03-06T09:45:23.856Z,6.19
2018-03-06T09:46:23.843Z,6.23
2018-03-06T09:47:23.862Z,6.29
2018-03-06T09:48:23.846Z,6.35
2018-03-06T09:49:23.850Z,6.39
2018-03-06T09:50:23.925Z,6.35
2018-03-06T09:51:23.850Z,6.39
2018-03-06T09:52:23.941Z,6.41
2018-03-06T09:53:24.125Z,6.32
2018-03-06T09:54:23.861Z,6.35
2018-03-06T09:55:23.855Z,6.36
2018-03-06T09:56:24.018Z,6.37
2018-03-06T09:57:23.886Z,6.39
2018-03-06T09:58:23.866Z,6.28
2018-03-06T09:59:23.874Z,6.29
2018-03-06T10:00:23.885Z,6.3
2018-03-06T10:01:23.932Z,6.32
2018-03-06T10:02:23.913Z,6.2
2018-03-06T10:03:23.885Z,6.26
2018-03-06T10:04:23.896Z,6.32
2018-03-06T10:05:23.879Z,6.37
2018-03-06T10:06:23.895Z,6.48
2018-03-06T10:07:23.889Z,6.41
2018-03-06T10:08:23.898Z,6.4
2018-03-06T10:09:23.887Z,6.48
2018-03-06T10:10:23.892Z,6.56
2018-03-06T10:11:23.910Z,6.61
2018-03-06T10:12:23.905Z,6.68
2018-03-06T10:13:23.921Z,6.75
2018-03-06T10:14:23.938Z,6.81
2018-03-06T10:15:23.908Z,6.84
2018-03-06T10:16:23.921Z,6.87
2018-03-06T10:17:23.920Z,6.91
2018-03-06T10:18:23.931Z,6.94
2018-03-06T10:19:23.976Z,7.01
2018-03-06T10:20:23.920Z,7.06
2018-03-06T10:21:23.943Z,7.08
2018-03-06T10:22:24.000Z,7.09
2018-03-06T10:23:23.953Z,7.11
2018-03-06T10:24:23.984Z,7.15
2018-03-06T10:25:23.934Z,7.18
2018-03-06T10:26:23.932Z,7.13
2018-03-06T10:27:23.979Z,7.13
2018-03-06T10:28:23.959Z,7.18
2018-03-06T10:29:23.970Z,7.19
2018-03-06T10:30:23.950Z,7.22
2018-03-06T10:31:23.957Z,7.24
2018-03-06T10:32:23.968Z,7.3
2018-03-06T10:33:24.013Z,7.33
2018-03-06T10:34:24.238Z,7.37
2018-03-06T10:35:24.063Z,7.37
2018-03-06T10:36:23.971Z,7.39
2018-03-06T10:37:23.974Z,7.44
2018-03-06T10:38:23.980Z,7.47
2018-03-06T10:39:24.003Z,7.47
2018-03-06T10:40:23.993Z,7.53
2018-03-06T10:41:24.002Z,7.53
2018-03-06T10:42:23.992Z,7.54
2018-03-06T10:43:24.018Z,7.54
2018-03-06T10:44:24.022Z,7.5
2018-03-06T10:45:24.005Z,7.5
2018-03-06T10:46:24.017Z,7.53
2018-03-06T10:47:24.113Z,7.58
2018-03-06T10:48:24.020Z,7.59
2018-03-06T10:49:24.027Z,7.64
2018-03-06T10:50:24.029Z,7.58
2018-03-06T10:51:24.027Z,7.46
2018-03-06T10:52:24.035Z,7.33
2018-03-06T10:53:24.041Z,7.23
2018-03-06T10:54:24.060Z,7.29
2018-03-06T10:55:24.053Z,7.36
2018-03-06T10:56:24.058Z,7.41
2018-03-06T10:57:24.045Z,7.44
2018-03-06T10:58:24.051Z,7.51
2018-03-06T10:59:24.162Z,7.55
2018-03-06T11:00:24.056Z,7.55
2018-03-06T11:01:24.064Z,7.5
2018-03-06T11:02:24.065Z,7.44
2018-03-06T11:03:24.088Z,7.44
2018-03-06T11:04:24.167Z,7.51
2018-03-06T11:05:24.072Z,7.54
2018-03-06T11:06:24.071Z,7.55
2018-03-06T11:07:24.080Z,7.62
2018-03-06T11:08:24.096Z,7.62
2018-03-06T11:09:24.207Z,7.62
2018-03-06T11:10:24.102Z,7.64
2018-03-06T11:11:24.132Z,7.65
2018-03-06T11:12:24.114Z,7.62
2018-03-06T11:13:24.109Z,7.68
2018-03-06T11:14:24.417Z,7.69
2018-03-06T11:15:24.109Z,7.77
2018-03-06T11:16:24.112Z,7.78
2018-03-06T11:17:24.106Z,7.81
2018-03-06T11:18:24.325Z,7.84
2018-03-06T11:19:24.112Z,7.85
2018-03-06T11:20:24.124Z,7.88
2018-03-06T11:21:24.145Z,7.92
2018-03-06T11:22:24.219Z,7.95
2018-03-06T11:23:24.139Z,7.96
2018-03-06T11:24:24.132Z,7.91
2018-03-06T11:25:24.142Z,7.98
2018-03-06T11:26:24.145Z,8.02
2018-03-06T11:27:24.152Z,8.01
2018-03-06T11:28:24.147Z,7.96
2018-03-06T11:29:24.147Z,8.01
2018-03-06T11:30:24.189Z,7.99
2018-03-06T11:31:24.168Z,7.99
2018-03-06T11:32:24.169Z,8.03
2018-03-06T11:33:24.165Z,8.06
2018-03-06T11:34:24.172Z,8.1
2018-03-06T11:35:24.277Z,8.14
2018-03-06T11:36:24.161Z,8.19
2018-03-06T11:37:24.202Z,8.21
2018-03-06T11:38:24.177Z,8.24
2018-03-06T11:39:24.177Z,8.29
2018-03-06T11:40:24.421Z,8.31
2018-03-06T11:41:24.186Z,8.37
2018-03-06T11:42:24.317Z,8.37
2018-03-06T11:43:24.174Z,8.37
2018-03-06T11:44:24.189Z,8.36
2018-03-06T11:45:24.184Z,8.36
2018-03-06T11:46:24.190Z,8.4
2018-03-06T11:47:24.183Z,8.43
2018-03-06T11:48:24.185Z,8.47
2018-03-06T11:49:24.192Z,8.49
2018-03-06T11:50:24.198Z,8.51
2018-03-06T11:51:24.211Z,8.54
2018-03-06T11:52:24.192Z,8.52
2018-03-06T11:53:24.203Z,8.58
2018-03-06T11:54:25.372Z,8.59
2018-03-06T11:55:24.226Z,8.64
2018-03-06T11:56:24.205Z,8.69
2018-03-06T11:57:24.217Z,8.68
2018-03-06T11:58:24.283Z,8.69
2018-03-06T11:59:24.251Z,8.68
2018-03-06T12:00:24.221Z,8.69
2018-03-06T12:01:24.227Z,8.74
2018-03-06T12:02:24.221Z,8.72
2018-03-06T12:03:24.251Z,8.65
2018-03-06T12:04:24.229Z,8.66
2018-03-06T12:05:24.293Z,8.65
2018-03-06T12:06:24.248Z,8.69
2018-03-06T12:07:24.248Z,8.71
2018-03-06T12:08:24.255Z,8.74
2018-03-06T12:09:24.287Z,8.78
2018-03-06T12:10:24.281Z,8.8
2018-03-06T12:11:24.267Z,8.74
2018-03-06T12:12:24.262Z,8.69
2018-03-06T12:13:24.283Z,8.76
2018-03-06T12:14:24.263Z,8.8
2018-03-06T12:15:24.275Z,8.83
2018-03-06T12:16:24.268Z,8.89
2018-03-06T12:17:24.271Z,8.93
2018-03-06T12:18:24.266Z,8.93
2018-03-06T12:19:24.297Z,8.85
2018-03-06T12:20:24.263Z,8.89
2018-03-06T12:21:24.319Z,8.95
2018-03-06T12:22:24.278Z,8.96
2018-03-06T12:23:24.296Z,8.98
2018-03-06T12:24:24.301Z,9.04
2018-03-06T12:25:24.300Z,9.09
2018-03-06T12:26:24.305Z,9.07
2018-03-06T12:27:24.292Z,9.1
2018-03-06T12:28:24.320Z,9.11
2018-03-06T12:29:24.297Z,9.09
2018-03-06T12:30:24.342Z,9.04
2018-03-06T12:31:24.321Z,9.07
2018-03-06T12:32:24.344Z,9.09
2018-03-06T12:33:24.487Z,9.11
2018-03-06T12:34:24.426Z,9.13
2018-03-06T12:35:24.332Z,9.16
2018-03-06T12:36:24.331Z,9.19
2018-03-06T12:37:24.325Z,9.2
2018-03-06T12:38:24.347Z,9.11
2018-03-06T12:39:24.354Z,9.16
2018-03-06T12:40:24.324Z,9.2
2018-03-06T12:41:24.375Z,9.21
2018-03-06T12:42:24.344Z,9.26
2018-03-06T12:43:24.354Z,9.27
2018-03-06T12:44:24.341Z,9.29
2018-03-06T12:45:24.351Z,9.3
2018-03-06T12:46:24.345Z,9.31
2018-03-06T12:47:24.340Z,9.34
2018-03-06T12:48:24.345Z,9.35
2018-03-06T12:49:24.376Z,9.41
2018-03-06T12:50:24.374Z,9.41
2018-03-06T12:51:24.366Z,9.44
2018-03-06T12:52:24.372Z,9.45
2018-03-06T12:53:24.367Z,9.48
2018-03-06T12:54:24.382Z,9.49
2018-03-06T12:55:24.373Z,9.48
2018-03-06T12:56:24.373Z,9.42
2018-03-06T12:57:24.380Z,9.35
2018-03-06T12:58:24.388Z,9.35
2018-03-06T12:59:24.389Z,9.38
2018-03-06T13:00:24.389Z,9.42
2018-03-06T13:01:24.439Z,9.48
2018-03-06T13:02:24.399Z,9.48
2018-03-06T13:03:24.393Z,9.51
2018-03-06T13:04:24.416Z,9.52
2018-03-06T13:05:24.407Z,9.57
2018-03-06T13:06:24.430Z,9.61
2018-03-06T13:07:24.423Z,9.58
2018-03-06T13:08:24.419Z,9.61
2018-03-06T13:09:24.417Z,9.66
2018-03-06T13:10:24.416Z,9.68
2018-03-06T13:11:24.421Z,9.66
2018-03-06T13:12:24.434Z,9.72
2018-03-06T13:13:24.437Z,9.7
2018-03-06T13:14:24.519Z,9.7
2018-03-06T13:15:24.442Z,9.69
2018-03-06T13:16:24.443Z,9.69
2018-03-06T13:17:24.452Z,9.72
2018-03-06T13:18:24.463Z,9.75
2018-03-06T13:19:24.492Z,9.76
2018-03-06T13:20:24.517Z,9.76
2018-03-06T13:21:24.470Z,9.76
2018-03-06T13:22:24.479Z,9.78
2018-03-06T13:23:24.492Z,9.79
2018-03-06T13:24:24.549Z,9.78
2018-03-06T13:25:24.505Z,9.81
2018-03-06T13:26:24.504Z,9.86
2018-03-06T13:27:24.505Z,9.92
2018-03-06T13:28:24.566Z,9.92
2018-03-06T13:29:24.545Z,9.94
2018-03-06T13:30:24.526Z,9.99
2018-03-06T13:31:24.518Z,10
2018-03-06T13:32:24.516Z,10
2018-03-06T13:33:24.540Z,10
2018-03-06T13:34:24.788Z,9.99
2018-03-06T13:35:24.541Z,10.02
2018-03-06T13:36:24.536Z,10.04
2018-03-06T13:37:24.528Z,10.1
2018-03-06T13:38:24.537Z,10.11
2018-03-06T13:39:24.570Z,10.09
2018-03-06T13:40:24.537Z,10.14
2018-03-06T13:41:24.556Z,10.17
2018-03-06T13:42:24.539Z,10.2